N805AB KPWM-
Flight info
| Callsign | N805AB |
|---|---|
| Flight time | N/A |
| Altitude | VFR/095 |
| Route | VFR SOUTH |
| Aircraft | P180/L-DOV/C |
Departure
| Time | 2026-05-08 00:44 |
|---|---|
| Airport | Portland International Jetport (KPWM) |
Arrival
| Time | N/A |
|---|---|
| Airport | - |
| Time | Latitude | Longitude | Altitude | Speed | Heading |
|---|---|---|---|---|---|
| 2026-05-08 00:38 | 43.64989 | -70.30774 | 53 ft | 0 kts | 359° |
| 2026-05-08 00:40 | 43.64986 | -70.30754 | 53 ft | 11 kts | 137° |
| 2026-05-08 00:40 | 43.64876 | -70.30708 | 52 ft | 20 kts | 180° |
| 2026-05-08 00:40 | 43.64782 | -70.30704 | 51 ft | 8 kts | 178° |
| 2026-05-08 00:41 | 43.64713 | -70.30702 | 55 ft | 12 kts | 179° |
| 2026-05-08 00:41 | 43.64606 | -70.30690 | 52 ft | 19 kts | 160° |
| 2026-05-08 00:41 | 43.64556 | -70.30520 | 52 ft | 22 kts | 95° |
| 2026-05-08 00:41 | 43.64541 | -70.30287 | 49 ft | 26 kts | 95° |
| 2026-05-08 00:42 | 43.64524 | -70.30030 | 49 ft | 18 kts | 95° |
| 2026-05-08 00:42 | 43.64484 | -70.29917 | 45 ft | 10 kts | 168° |
| 2026-05-08 00:42 | 43.64479 | -70.29916 | 45 ft | 0 kts | 169° |
| 2026-05-08 00:43 | 43.64461 | -70.29916 | 45 ft | 7 kts | 186° |
| 2026-05-08 00:43 | 43.64415 | -70.30029 | 45 ft | 24 kts | 273° |
| 2026-05-08 00:43 | 43.64449 | -70.30522 | 50 ft | 88 kts | 276° |
| 2026-05-08 00:43 | 43.64520 | -70.31560 | 307 ft | 116 kts | 277° |
| 2026-05-08 00:44 | 43.64609 | -70.32753 | 591 ft | 139 kts | 276° |
| 2026-05-08 00:44 | 43.64713 | -70.34225 | 848 ft | 170 kts | 276° |
| 2026-05-08 00:44 | 43.64848 | -70.35958 | 1185 ft | 189 kts | 278° |
| 2026-05-08 00:44 | 43.64998 | -70.37719 | 1915 ft | 180 kts | 279° |
| 2026-05-08 00:45 | 43.65170 | -70.39500 | 2247 ft | 195 kts | 278° |
| 2026-05-08 00:45 | 43.65252 | -70.41463 | 2262 ft | 215 kts | 275° |
| 2026-05-08 00:45 | 43.65277 | -70.43571 | 2253 ft | 227 kts | 269° |
| 2026-05-08 00:45 | 43.64980 | -70.45785 | 2100 ft | 240 kts | 254° |
| 2026-05-08 00:46 | 43.64080 | -70.47738 | 2088 ft | 247 kts | 229° |
| 2026-05-08 00:46 | 43.62633 | -70.49006 | 2254 ft | 248 kts | 206° |
| 2026-05-08 00:46 | 43.60916 | -70.49350 | 2356 ft | 256 kts | 179° |
| 2026-05-08 00:46 | 43.59182 | -70.48754 | 2522 ft | 255 kts | 165° |
| 2026-05-08 00:47 | 43.57485 | -70.48036 | 2442 ft | 264 kts | 165° |
| 2026-05-08 00:47 | 43.55702 | -70.47331 | 2456 ft | 264 kts | 167° |
| 2026-05-08 00:47 | 43.53954 | -70.46791 | 2839 ft | 250 kts | 173° |
| 2026-05-08 00:47 | 43.52289 | -70.46702 | 3417 ft | 233 kts | 189° |
| 2026-05-08 00:48 | 43.50686 | -70.47009 | 3756 ft | 233 kts | 193° |
| 2026-05-08 00:48 | 43.49096 | -70.47447 | 4074 ft | 233 kts | 197° |
| 2026-05-08 00:48 | 43.47507 | -70.47909 | 4441 ft | 235 kts | 195° |
| 2026-05-08 00:48 | 43.45874 | -70.48334 | 4777 ft | 243 kts | 194° |
| 2026-05-08 00:49 | 43.44198 | -70.48763 | 5088 ft | 247 kts | 194° |
| 2026-05-08 00:49 | 43.42521 | -70.49192 | 5407 ft | 249 kts | 194° |
| 2026-05-08 00:49 | 43.40812 | -70.49629 | 5734 ft | 251 kts | 194° |
| 2026-05-08 00:49 | 43.39095 | -70.50067 | 6062 ft | 251 kts | 194° |
| 2026-05-08 00:50 | 43.37375 | -70.50504 | 6383 ft | 251 kts | 194° |
| 2026-05-08 00:50 | 43.35653 | -70.50937 | 6703 ft | 252 kts | 194° |
| 2026-05-08 00:50 | 43.33927 | -70.51368 | 7035 ft | 253 kts | 194° |
| 2026-05-08 00:50 | 43.32193 | -70.51795 | 7347 ft | 254 kts | 195° |
| 2026-05-08 00:51 | 43.30450 | -70.52217 | 7653 ft | 255 kts | 194° |
| 2026-05-08 00:51 | 43.28703 | -70.52633 | 7962 ft | 255 kts | 195° |
| 2026-05-08 00:51 | 43.26947 | -70.53042 | 8275 ft | 256 kts | 194° |
| 2026-05-08 00:51 | 43.25184 | -70.53445 | 8591 ft | 257 kts | 195° |
| 2026-05-08 00:52 | 43.23416 | -70.53839 | 8915 ft | 258 kts | 194° |
| 2026-05-08 00:52 | 43.21641 | -70.54227 | 9242 ft | 259 kts | 194° |
| 2026-05-08 00:52 | 43.19855 | -70.54611 | 9275 ft | 269 kts | 194° |
| 2026-05-08 00:52 | 43.17979 | -70.55023 | 9265 ft | 277 kts | 194° |
| 2026-05-08 00:53 | 43.16064 | -70.55449 | 9265 ft | 281 kts | 194° |
| 2026-05-08 00:53 | 43.14123 | -70.55885 | 9265 ft | 284 kts | 194° |
| 2026-05-08 00:53 | 43.12171 | -70.56326 | 9264 ft | 285 kts | 194° |
| 2026-05-08 00:53 | 43.10208 | -70.56771 | 9260 ft | 286 kts | 194° |
| 2026-05-08 00:54 | 43.08238 | -70.57217 | 9263 ft | 287 kts | 194° |
| 2026-05-08 00:54 | 43.06267 | -70.57665 | 9259 ft | 287 kts | 194° |
| 2026-05-08 00:54 | 43.04295 | -70.58115 | 9256 ft | 287 kts | 194° |
| 2026-05-08 00:54 | 43.02323 | -70.58567 | 9256 ft | 287 kts | 194° |
| 2026-05-08 00:55 | 43.00350 | -70.59021 | 9255 ft | 288 kts | 194° |
| 2026-05-08 00:55 | 42.98376 | -70.59477 | 9253 ft | 288 kts | 194° |
| 2026-05-08 00:55 | 42.96402 | -70.59932 | 9249 ft | 288 kts | 194° |
| 2026-05-08 00:55 | 42.94432 | -70.60387 | 9249 ft | 286 kts | 194° |
| 2026-05-08 00:56 | 42.92514 | -70.60828 | 9251 ft | 281 kts | 194° |
| 2026-05-08 00:56 | 42.90600 | -70.61265 | 9248 ft | 277 kts | 194° |
| 2026-05-08 00:56 | 42.88710 | -70.61693 | 9246 ft | 274 kts | 194° |
| 2026-05-08 00:56 | 42.86836 | -70.62117 | 9246 ft | 272 kts | 194° |
| 2026-05-08 00:57 | 42.84970 | -70.62540 | 9247 ft | 271 kts | 194° |
| 2026-05-08 00:57 | 42.83112 | -70.62963 | 9250 ft | 270 kts | 194° |
| 2026-05-08 00:57 | 42.81258 | -70.63388 | 9245 ft | 270 kts | 194° |
| 2026-05-08 00:57 | 42.79407 | -70.63813 | 9252 ft | 269 kts | 194° |
| 2026-05-08 00:58 | 42.77563 | -70.64239 | 9253 ft | 269 kts | 194° |
| 2026-05-08 00:58 | 42.75717 | -70.64668 | 9252 ft | 269 kts | 194° |
| 2026-05-08 00:58 | 42.74498 | -70.64952 | 9251 ft | 269 kts | 194° |
| 2026-05-08 00:58 | 42.72657 | -70.65383 | 9263 ft | 269 kts | 194° |
| 2026-05-08 00:59 | 42.70217 | -70.65959 | 9251 ft | 269 kts | 194° |
| 2026-05-08 00:59 | 42.68402 | -70.66386 | 9254 ft | 258 kts | 194° |
| 2026-05-08 00:59 | 42.66680 | -70.66781 | 9138 ft | 242 kts | 194° |
| 2026-05-08 00:59 | 42.65074 | -70.67140 | 8773 ft | 228 kts | 194° |
| 2026-05-08 01:00 | 42.63536 | -70.67484 | 8347 ft | 221 kts | 194° |
| 2026-05-08 01:00 | 42.62042 | -70.67824 | 7924 ft | 215 kts | 194° |
| 2026-05-08 01:00 | 42.61071 | -70.68048 | 7647 ft | 212 kts | 194° |
| 2026-05-08 01:00 | 42.59626 | -70.68388 | 7233 ft | 210 kts | 194° |
| 2026-05-08 01:01 | 42.58184 | -70.68736 | 6825 ft | 210 kts | 194° |
| 2026-05-08 01:01 | 42.56749 | -70.69088 | 6427 ft | 209 kts | 194° |
| 2026-05-08 01:01 | 42.55322 | -70.69449 | 6037 ft | 208 kts | 194° |
| 2026-05-08 01:01 | 42.53919 | -70.69806 | 5789 ft | 199 kts | 194° |
| 2026-05-08 01:02 | 42.52217 | -70.70226 | 5782 ft | 178 kts | 194° |
| 2026-05-08 01:02 | 42.51411 | -70.70417 | 5769 ft | 170 kts | 195° |
| 2026-05-08 01:02 | 42.50275 | -70.70679 | 5756 ft | 161 kts | 194° |
| 2026-05-08 01:02 | 42.49195 | -70.70926 | 5747 ft | 154 kts | 195° |
| 2026-05-08 01:03 | 42.48154 | -70.71157 | 5728 ft | 149 kts | 194° |
| 2026-05-08 01:03 | 42.47147 | -70.71376 | 5709 ft | 144 kts | 194° |
| 2026-05-08 01:03 | 42.46181 | -70.71585 | 5701 ft | 141 kts | 195° |
| 2026-05-08 01:03 | 42.45219 | -70.71789 | 5692 ft | 138 kts | 194° |
| 2026-05-08 01:04 | 42.44279 | -70.71991 | 5685 ft | 135 kts | 195° |
| 2026-05-08 01:04 | 42.43380 | -70.72296 | 5681 ft | 131 kts | 205° |
| 2026-05-08 01:04 | 42.42565 | -70.72796 | 5677 ft | 127 kts | 213° |
| 2026-05-08 01:04 | 42.41812 | -70.73393 | 5679 ft | 125 kts | 217° |
| 2026-05-08 01:05 | 42.41072 | -70.73989 | 5672 ft | 122 kts | 217° |
| 2026-05-08 01:05 | 42.40335 | -70.74586 | 5502 ft | 129 kts | 217° |
| 2026-05-08 01:05 | 42.39536 | -70.75243 | 5253 ft | 139 kts | 217° |
| 2026-05-08 01:05 | 42.38690 | -70.75947 | 5010 ft | 146 kts | 217° |
| 2026-05-08 01:06 | 42.37812 | -70.76681 | 4769 ft | 150 kts | 217° |
| 2026-05-08 01:06 | 42.36914 | -70.77433 | 4527 ft | 153 kts | 217° |
| 2026-05-08 01:06 | 42.36011 | -70.78186 | 4277 ft | 156 kts | 217° |
| 2026-05-08 01:06 | 42.34982 | -70.78657 | 4025 ft | 165 kts | 179° |
| 2026-05-08 01:07 | 42.33770 | -70.78215 | 4035 ft | 202 kts | 166° |
| 2026-05-08 01:07 | 42.32323 | -70.77608 | 4057 ft | 230 kts | 166° |
| 2026-05-08 01:07 | 42.30730 | -70.76957 | 4076 ft | 246 kts | 166° |
| 2026-05-08 01:07 | 42.29056 | -70.76281 | 4102 ft | 255 kts | 166° |
| 2026-05-08 01:08 | 42.27336 | -70.75589 | 4120 ft | 261 kts | 166° |
| 2026-05-08 01:08 | 42.25554 | -70.75280 | 4112 ft | 258 kts | 190° |
| 2026-05-08 01:08 | 42.23962 | -70.76265 | 4087 ft | 253 kts | 224° |
| 2026-05-08 01:08 | 42.23090 | -70.78252 | 4067 ft | 247 kts | 258° |
| 2026-05-08 01:09 | 42.23180 | -70.80503 | 4058 ft | 245 kts | 286° |
| 2026-05-08 01:09 | 42.24056 | -70.82440 | 4054 ft | 245 kts | 315° |
| 2026-05-08 01:09 | 42.25416 | -70.83887 | 4015 ft | 248 kts | 322° |
| 2026-05-08 01:09 | 42.26746 | -70.85221 | 3786 ft | 228 kts | 322° |
| 2026-05-08 01:10 | 42.27886 | -70.86512 | 3576 ft | 202 kts | 313° |
| 2026-05-08 01:10 | 42.28777 | -70.87874 | 3374 ft | 186 kts | 309° |
| 2026-05-08 01:10 | 42.29512 | -70.89249 | 3049 ft | 177 kts | 301° |
| 2026-05-08 01:10 | 42.30068 | -70.90679 | 2706 ft | 167 kts | 296° |
| 2026-05-08 01:11 | 42.30529 | -70.92089 | 2395 ft | 162 kts | 294° |
| 2026-05-08 01:11 | 42.30980 | -70.93372 | 1992 ft | 139 kts | 296° |
| 2026-05-08 01:11 | 42.31409 | -70.94465 | 1622 ft | 124 kts | 300° |
| 2026-05-08 01:11 | 42.31873 | -70.95348 | 1395 ft | 109 kts | 307° |
| 2026-05-08 01:12 | 42.32351 | -70.96170 | 1118 ft | 121 kts | 306° |
| 2026-05-08 01:12 | 42.32879 | -70.97097 | 899 ft | 128 kts | 306° |
| 2026-05-08 01:12 | 42.33391 | -70.98105 | 663 ft | 131 kts | 303° |
| 2026-05-08 01:12 | 42.33933 | -70.99109 | 407 ft | 131 kts | 309° |
| 2026-05-08 01:13 | 42.34418 | -71.00010 | 169 ft | 104 kts | 306° |
| 2026-05-08 01:13 | 42.34818 | -71.00748 | 55 ft | 91 kts | 305° |
| 2026-05-08 01:13 | 42.35152 | -71.01372 | 19 ft | 72 kts | 306° |
| 2026-05-08 01:13 | 42.35406 | -71.01847 | 18 ft | 48 kts | 306° |
| 2026-05-08 01:14 | 42.35505 | -71.01981 | 19 ft | 13 kts | 4° |
| 2026-05-08 01:14 | 42.35558 | -71.01886 | 19 ft | 9 kts | 77° |
| 2026-05-08 01:14 | 42.35573 | -71.01799 | 21 ft | 0 kts | 77° |
| 2026-05-08 01:14 | 42.35574 | -71.01793 | 21 ft | 0 kts | 77° |
| 2026-05-08 01:15 | 42.35575 | -71.01787 | 23 ft | 2 kts | 77° |
| 2026-05-08 01:15 | 42.35577 | -71.01774 | 21 ft | 2 kts | 77° |
| 2026-05-08 01:15 | 42.35578 | -71.01770 | 21 ft | 0 kts | 77° |
| 2026-05-08 01:16 | 42.35578 | -71.01769 | 21 ft | 1 kts | 77° |
| 2026-05-08 01:16 | 42.35583 | -71.01735 | 21 ft | 7 kts | 76° |
| 2026-05-08 01:17 | 42.35625 | -71.01677 | 21 ft | 12 kts | 21° |
| 2026-05-08 01:17 | 42.35725 | -71.01630 | 20 ft | 18 kts | 19° |
| 2026-05-08 01:17 | 42.35831 | -71.01632 | 23 ft | 14 kts | 303° |
| 2026-05-08 01:17 | 42.35885 | -71.01690 | 24 ft | 11 kts | 309° |
| 2026-05-08 01:18 | 42.35917 | -71.01801 | 21 ft | 15 kts | 291° |
| 2026-05-08 01:18 | 42.35968 | -71.01945 | 19 ft | 19 kts | 298° |
| 2026-05-08 01:18 | 42.35915 | -71.02094 | 18 ft | 22 kts | 217° |
| 2026-05-08 01:18 | 42.35860 | -71.02145 | 19 ft | 0 kts | 213° |